Time;durP1;ratioP1;P1;durP2;ratioP2;P2;SDS_P1;SDS_P2;PMS_P1;PMS_P2;Temp;Humidity;BMP_temperature;BMP_pressure;BME280_temperature;BME280_humidity;BME280_pressure;Samples;Min_cycle;Max_cycle;Signal;HPM_P1;HPM_P2
2023/07/29 00:00:47;;;;;;;5.47;2.50;;;17.40;99.90;;;;;;5012541;28;20191;-72
2023/07/29 00:03:12;;;;;;;2.37;2.17;;;17.40;99.90;;;;;;5012702;28;20179;-72
2023/07/29 00:05:38;;;;;;;2.83;2.63;;;17.40;99.90;;;;;;5012385;28;20214;-72
2023/07/29 00:08:04;;;;;;;3.53;2.20;;;17.40;99.90;;;;;;5009892;28;20249;-72
2023/07/29 00:10:31;;;;;;;3.73;2.40;;;17.40;99.90;;;;;;5009097;28;20433;-72
2023/07/29 00:12:57;;;;;;;2.60;2.40;;;17.60;99.90;;;;;;5012134;28;20209;-72
2023/07/29 00:15:23;;;;;;;4.40;2.47;;;17.60;99.90;;;;;;5011558;28;20465;-73
2023/07/29 00:17:48;;;;;;;2.63;2.43;;;17.50;99.90;;;;;;5011667;28;20273;-72
2023/07/29 00:20:14;;;;;;;4.27;2.50;;;17.50;99.90;;;;;;5011126;28;20190;-72
2023/07/29 00:22:39;;;;;;;3.13;2.93;;;17.50;99.90;;;;;;5009086;28;20644;-72
2023/07/29 00:25:05;;;;;;;4.03;3.10;;;17.50;99.90;;;;;;5010794;28;20206;-72
2023/07/29 00:27:31;;;;;;;2.40;2.20;;;17.50;99.90;;;;;;5009925;28;20229;-73
2023/07/29 00:29:56;;;;;;;3.30;2.43;;;17.50;99.90;;;;;;5009846;28;20167;-72
2023/07/29 00:32:22;;;;;;;2.30;2.20;;;17.40;99.90;;;;;;5012080;28;20261;-73
2023/07/29 00:34:47;;;;;;;2.70;2.50;;;17.40;99.90;;;;;;5011387;28;20202;-73
2023/07/29 00:37:13;;;;;;;2.90;2.70;;;17.40;99.90;;;;;;5011983;28;20213;-72
2023/07/29 00:39:39;;;;;;;2.70;2.50;;;17.50;99.90;;;;;;5010414;28;20188;-72
2023/07/29 00:42:05;;;;;;;4.63;3.00;;;17.50;99.90;;;;;;5011282;28;20182;-72
2023/07/29 00:44:33;;;;;;;3.03;2.83;;;17.40;99.90;;;;;;5011061;28;20202;-72
2023/07/29 00:47:02;;;;;;;4.37;2.77;;;17.50;99.90;;;;;;5011894;28;20569;-72
2023/07/29 00:49:28;;;;;;;3.00;2.70;;;17.50;99.90;;;;;;5007879;28;20467;-72
2023/07/29 00:51:53;;;;;;;2.80;2.60;;;17.40;99.90;;;;;;5010271;28;20441;-72
2023/07/29 00:54:19;;;;;;;4.80;2.50;;;17.50;99.90;;;;;;5010648;28;20313;-72
2023/07/29 00:56:44;;;;;;;4.23;2.50;;;17.50;99.90;;;;;;5009272;28;20183;-72
2023/07/29 00:59:10;;;;;;;2.70;2.50;;;17.50;99.90;;;;;;5010665;28;20277;-72
2023/07/29 01:01:36;;;;;;;3.70;3.40;;;17.50;99.90;;;;;;5010586;28;20548;-72
2023/07/29 01:04:01;;;;;;;3.53;2.23;;;17.50;99.90;;;;;;5010440;28;20441;-72
2023/07/29 01:06:45;;;;;;;3.00;2.80;;;17.60;99.90;;;;;;5011084;28;20181;-72
2023/07/29 01:09:23;;;;;;;3.47;2.23;;;17.50;99.90;;;;;;5007600;28;20297;-73
2023/07/29 01:12:01;;;;;;;4.20;2.87;;;17.50;99.90;;;;;;5010873;28;20493;-73
2023/07/29 01:14:29;;;;;;;4.80;2.33;;;17.50;99.90;;;;;;5011128;28;20457;-73
2023/07/29 01:17:02;;;;;;;3.47;2.63;;;17.50;99.90;;;;;;5011773;28;20441;-72
2023/07/29 01:19:49;;;;;;;4.07;2.37;;;17.50;99.90;;;;;;5009084;28;20465;-72
2023/07/29 01:22:16;;;;;;;3.70;3.43;;;17.50;99.90;;;;;;5009519;28;20433;-72
2023/07/29 01:24:41;;;;;;;4.30;3.80;;;17.50;99.90;;;;;;5008211;28;20441;-72
2023/07/29 01:27:07;;;;;;;4.57;4.17;;;17.40;99.90;;;;;;5009290;28;20444;-72
2023/07/29 01:29:33;;;;;;;2.80;2.60;;;17.40;99.90;;;;;;5010411;28;20187;-72
2023/07/29 01:32:06;;;;;;;3.00;2.80;;;17.40;99.90;;;;;;5009684;28;20201;-72
2023/07/29 01:34:56;;;;;;;3.07;2.47;;;17.30;99.90;;;;;;5012106;28;20195;-73
2023/07/29 01:37:25;;;;;;;3.73;2.57;;;17.30;99.90;;;;;;5011167;28;20479;-72
2023/07/29 01:39:56;;;;;;;2.50;2.30;;;17.40;99.90;;;;;;5010581;28;20434;-73
2023/07/29 01:42:22;;;;;;;3.13;2.93;;;17.40;99.90;;;;;;5010553;28;20452;-72
2023/07/29 01:44:48;;;;;;;3.10;2.30;;;17.40;99.90;;;;;;5010361;28;20850;-72
2023/07/29 01:47:14;;;;;;;2.80;2.60;;;17.40;99.90;;;;;;5004109;28;20468;-72
2023/07/29 01:49:39;;;;;;;3.33;2.30;;;17.50;99.90;;;;;;5009990;28;20178;-72
2023/07/29 01:52:05;;;;;;;2.27;2.17;;;17.40;99.90;;;;;;5010260;28;20175;-72
2023/07/29 01:54:30;;;;;;;4.10;2.73;;;17.30;99.90;;;;;;5015167;28;20237;-72
2023/07/29 01:56:56;;;;;;;3.10;2.90;;;17.40;99.90;;;;;;5014229;28;20179;-72
2023/07/29 01:59:22;;;;;;;2.43;2.23;;;17.30;99.90;;;;;;5013623;28;20552;-72
2023/07/29 02:01:48;;;;;;;2.60;2.43;;;17.40;99.90;;;;;;5015039;28;20190;-72
2023/07/29 02:04:14;;;;;;;3.53;3.00;;;17.40;99.90;;;;;;5014697;28;20179;-72
2023/07/29 02:06:39;;;;;;;4.23;2.77;;;17.30;99.90;;;;;;5019312;28;20499;-73
2023/07/29 02:09:05;;;;;;;5.40;2.97;;;17.30;99.90;;;;;;5010491;28;20563;-72
2023/07/29 02:11:30;;;;;;;3.00;2.80;;;17.30;99.90;;;;;;5011582;28;20639;-72
2023/07/29 02:13:56;;;;;;;2.80;2.60;;;17.20;99.90;;;;;;5012877;28;20552;-72
2023/07/29 02:16:22;;;;;;;2.13;2.00;;;17.20;99.90;;;;;;5010855;28;20203;-72
2023/07/29 02:18:49;;;;;;;4.70;2.63;;;17.10;99.90;;;;;;5012430;28;20194;-72
2023/07/29 02:21:15;;;;;;;2.80;2.53;;;17.10;99.90;;;;;;5013400;28;20969;-72
2023/07/29 02:23:40;;;;;;;3.50;2.50;;;17.10;99.90;;;;;;5014329;28;20442;-72
2023/07/29 02:26:06;;;;;;;2.70;2.50;;;17.10;99.90;;;;;;5013520;28;20194;-73
2023/07/29 02:28:31;;;;;;;2.53;2.23;;;17.10;99.90;;;;;;5012194;28;20206;-72
2023/07/29 02:31:17;;;;;;;2.87;2.60;;;17.10;99.90;;;;;;5012006;28;20228;-72
2023/07/29 02:33:43;;;;;;;5.70;2.90;;;17.10;99.90;;;;;;5011646;28;20178;-72
2023/07/29 02:36:08;;;;;;;6.50;2.93;;;17.10;99.90;;;;;;5011839;28;20507;-72
2023/07/29 02:38:34;;;;;;;3.47;2.20;;;17.10;99.90;;;;;;5013568;28;20441;-72
2023/07/29 02:41:00;;;;;;;5.80;3.30;;;17.10;99.90;;;;;;5014061;28;20194;-72
2023/07/29 02:43:25;;;;;;;3.20;2.70;;;17.10;99.90;;;;;;5013462;28;20196;-72
2023/07/29 02:45:51;;;;;;;4.73;2.73;;;17.10;99.90;;;;;;5011588;28;20206;-72
2023/07/29 02:48:16;;;;;;;2.83;2.63;;;17.10;99.90;;;;;;5012317;28;20304;-72
2023/07/29 02:50:41;;;;;;;2.90;2.70;;;17.10;99.90;;;;;;5014922;28;20214;-72
2023/07/29 02:53:07;;;;;;;2.60;2.50;;;17.00;99.90;;;;;;5013409;28;20530;-72
2023/07/29 02:55:32;;;;;;;3.37;3.07;;;17.00;99.90;;;;;;5012247;28;20195;-72
2023/07/29 02:57:58;;;;;;;2.57;2.37;;;17.00;99.90;;;;;;5013860;28;20198;-72
2023/07/29 03:00:23;;;;;;;2.73;2.50;;;17.00;99.90;;;;;;5012458;28;20213;-72
2023/07/29 03:02:50;;;;;;;3.50;2.90;;;17.00;99.90;;;;;;5012837;28;20183;-72
2023/07/29 03:05:15;;;;;;;2.40;2.20;;;17.00;99.90;;;;;;5012371;28;20207;-73
2023/07/29 03:07:41;;;;;;;2.37;2.17;;;17.10;99.90;;;;;;5013845;28;20832;-72
2023/07/29 03:10:07;;;;;;;2.47;2.27;;;17.10;99.90;;;;;;5012977;28;20644;-73
2023/07/29 03:12:32;;;;;;;3.57;3.13;;;17.10;99.90;;;;;;5013165;28;20179;-72
2023/07/29 03:14:59;;;;;;;2.77;2.40;;;17.10;99.90;;;;;;5010963;28;20214;-72
2023/07/29 03:17:25;;;;;;;3.90;2.80;;;17.00;99.90;;;;;;5013294;28;20540;-72
2023/07/29 03:19:51;;;;;;;3.20;3.00;;;17.10;99.90;;;;;;5012572;28;20437;-72
2023/07/29 03:22:17;;;;;;;3.37;2.90;;;17.10;99.90;;;;;;5011224;28;20711;-73
2023/07/29 03:24:42;;;;;;;2.83;2.63;;;17.00;99.90;;;;;;5012346;28;20556;-72
2023/07/29 03:27:09;;;;;;;3.30;2.93;;;17.00;99.90;;;;;;5011917;28;20200;-72
2023/07/29 03:29:35;;;;;;;2.97;2.70;;;17.00;99.90;;;;;;5011064;28;20879;-72
2023/07/29 03:32:01;;;;;;;3.10;2.90;;;17.10;99.90;;;;;;5011960;28;20525;-72
2023/07/29 03:34:26;;;;;;;4.40;2.90;;;17.10;99.90;;;;;;5011137;28;20221;-72
2023/07/29 03:36:52;;;;;;;2.70;2.50;;;17.10;99.90;;;;;;5009858;28;20183;-72
2023/07/29 03:39:17;;;;;;;3.57;3.30;;;17.20;99.90;;;;;;5011503;28;20191;-73
2023/07/29 03:41:43;;;;;;;5.50;2.93;;;17.10;99.90;;;;;;5011487;28;20193;-73
2023/07/29 03:44:08;;;;;;;3.00;2.70;;;17.00;99.90;;;;;;5011899;28;20676;-72
2023/07/29 03:46:34;;;;;;;4.63;2.33;;;17.20;99.90;;;;;;5010331;28;20266;-72
2023/07/29 03:48:59;;;;;;;2.63;2.43;;;17.20;99.90;;;;;;5009775;28;20245;-73
2023/07/29 03:51:25;;;;;;;2.87;2.67;;;17.20;99.90;;;;;;5012109;28;20260;-72
2023/07/29 03:53:50;;;;;;;3.97;2.67;;;17.20;99.90;;;;;;5012627;28;20186;-72
2023/07/29 03:56:16;;;;;;;3.40;2.93;;;17.30;99.90;;;;;;5015340;28;20202;-72
2023/07/29 03:58:43;;;;;;;3.10;2.80;;;17.20;99.90;;;;;;5011150;28;20187;-72
2023/07/29 04:01:09;;;;;;;2.83;2.20;;;17.20;99.90;;;;;;5012699;28;20183;-72
2023/07/29 04:03:34;;;;;;;5.50;2.30;;;17.40;99.90;;;;;;5011552;28;20456;-72
2023/07/29 04:06:00;;;;;;;4.10;2.70;;;17.50;99.90;;;;;;5012337;28;20695;-72
2023/07/29 04:08:26;;;;;;;3.40;2.67;;;17.30;99.90;;;;;;5013655;28;20209;-72
2023/07/29 04:10:52;;;;;;;8.57;4.40;;;17.30;99.90;;;;;;5012440;28;20441;-72
2023/07/29 04:13:17;;;;;;;3.00;2.70;;;17.30;99.90;;;;;;5011783;28;20266;-72
2023/07/29 04:15:43;;;;;;;4.53;2.60;;;17.30;99.90;;;;;;5011796;28;20293;-72
2023/07/29 04:18:08;;;;;;;4.20;3.80;;;17.40;99.90;;;;;;5009941;28;20178;-72
2023/07/29 04:20:34;;;;;;;3.57;3.27;;;17.40;99.90;;;;;;5011033;28;20187;-72
2023/07/29 04:22:59;;;;;;;3.83;2.73;;;17.30;99.90;;;;;;5010486;28;20545;-72
2023/07/29 04:25:25;;;;;;;3.47;3.17;;;17.40;99.90;;;;;;5011421;28;20241;-72
2023/07/29 04:27:50;;;;;;;3.77;3.20;;;17.30;99.90;;;;;;5010896;28;20221;-72
2023/07/29 04:30:16;;;;;;;3.63;3.20;;;17.30;99.90;;;;;;5010088;28;20183;-72
2023/07/29 04:32:42;;;;;;;5.10;3.50;;;17.30;99.90;;;;;;5009938;28;20190;-72
2023/07/29 04:35:09;;;;;;;12.17;4.10;;;17.20;99.90;;;;;;5008535;28;20217;-72
2023/07/29 04:37:34;;;;;;;4.47;4.07;;;17.20;99.90;;;;;;5008739;28;20262;-72
2023/07/29 04:40:00;;;;;;;7.73;3.40;;;17.10;99.90;;;;;;5008792;28;20509;-72
2023/07/29 04:42:25;;;;;;;4.90;4.33;;;17.10;99.90;;;;;;5011672;28;20667;-71
2023/07/29 04:44:51;;;;;;;8.30;3.70;;;17.10;99.90;;;;;;5009313;28;20257;-72
2023/07/29 04:47:17;;;;;;;5.20;3.53;;;17.10;99.90;;;;;;5009647;28;20245;-71
2023/07/29 04:49:42;;;;;;;6.13;5.10;;;17.10;99.90;;;;;;5009843;28;20648;-71
2023/07/29 04:52:08;;;;;;;7.27;4.80;;;17.10;99.90;;;;;;5011712;28;20436;-72
2023/07/29 04:54:33;;;;;;;6.80;3.90;;;17.10;99.90;;;;;;5014986;28;20213;-71
2023/07/29 04:56:59;;;;;;;5.07;4.40;;;17.10;99.90;;;;;;5011887;28;20691;-71
2023/07/29 04:59:24;;;;;;;11.70;4.30;;;17.10;99.90;;;;;;5009717;28;20182;-71
2023/07/29 05:01:50;;;;;;;6.80;4.90;;;17.20;99.90;;;;;;5010933;28;20194;-72
2023/07/29 05:04:15;;;;;;;5.40;4.03;;;17.50;99.90;;;;;;5009714;28;20186;-72
2023/07/29 05:06:41;;;;;;;6.47;4.07;;;17.20;99.90;;;;;;5010727;28;20659;-71
2023/07/29 05:09:17;;;;;;;5.70;4.20;;;17.20;99.90;;;;;;5010544;28;20289;-71
2023/07/29 05:11:48;;;;;;;4.50;4.10;;;17.20;99.90;;;;;;5006327;28;20179;-71
2023/07/29 05:14:15;;;;;;;7.87;4.40;;;17.20;99.90;;;;;;5010681;28;20517;-72
2023/07/29 05:16:40;;;;;;;4.23;3.93;;;17.20;99.90;;;;;;5011448;28;20445;-71
2023/07/29 05:19:06;;;;;;;4.20;3.80;;;17.20;99.90;;;;;;5007764;28;20449;-71
2023/07/29 05:21:32;;;;;;;5.80;5.20;;;17.20;99.90;;;;;;5010825;28;20190;-71
2023/07/29 05:23:57;;;;;;;5.27;4.77;;;17.20;99.90;;;;;;5009454;28;20207;-71
2023/07/29 05:26:23;;;;;;;5.03;4.50;;;17.10;99.90;;;;;;5009364;28;20182;-71
2023/07/29 05:28:48;;;;;;;4.97;4.53;;;17.10;99.90;;;;;;5013242;28;20238;-71
2023/07/29 05:31:14;;;;;;;6.47;5.07;;;17.20;99.90;;;;;;5013682;28;20178;-71
2023/07/29 05:33:40;;;;;;;5.57;5.07;;;17.20;99.90;;;;;;5014783;28;20218;-71
2023/07/29 05:36:05;;;;;;;4.50;4.10;;;17.20;99.90;;;;;;5014807;28;20566;-71
2023/07/29 05:38:31;;;;;;;6.03;5.40;;;17.20;99.90;;;;;;5014532;28;20187;-71
2023/07/29 05:40:57;;;;;;;5.17;4.77;;;17.30;99.90;;;;;;5015327;28;20229;-71
2023/07/29 05:43:24;;;;;;;5.00;4.57;;;17.30;99.90;;;;;;5014206;28;20193;-71
2023/07/29 05:45:50;;;;;;;4.70;4.20;;;17.40;99.90;;;;;;5015234;28;20199;-71
2023/07/29 05:48:16;;;;;;;5.03;4.60;;;17.50;99.90;;;;;;5014577;28;20913;-71
2023/07/29 05:50:42;;;;;;;5.43;4.93;;;17.50;99.90;;;;;;5014796;28;20521;-71
2023/07/29 05:53:07;;;;;;;5.50;5.00;;;17.50;99.90;;;;;;5014143;28;20178;-71
2023/07/29 05:55:33;;;;;;;4.93;4.53;;;17.60;99.90;;;;;;5014417;28;20211;-71
2023/07/29 05:57:59;;;;;;;4.33;3.93;;;17.80;99.90;;;;;;5014993;28;20198;-71
2023/07/29 06:00:24;;;;;;;8.60;4.60;;;17.80;99.90;;;;;;5013689;28;20182;-71
2023/07/29 06:02:50;;;;;;;5.07;4.53;;;17.80;99.90;;;;;;5014525;28;20191;-71
2023/07/29 06:05:15;;;;;;;4.90;4.30;;;17.80;99.90;;;;;;5014174;28;20234;-71
2023/07/29 06:07:43;;;;;;;4.90;4.50;;;18.00;99.90;;;;;;5011156;28;20789;-71
2023/07/29 06:10:11;;;;;;;4.63;4.23;;;18.10;99.90;;;;;;5010477;28;20171;-72
2023/07/29 06:12:37;;;;;;;12.83;4.80;;;18.20;99.90;;;;;;5011845;28;20803;-72
2023/07/29 06:15:04;;;;;;;4.33;3.90;;;18.30;99.90;;;;;;5014350;28;20473;-72
2023/07/29 06:17:29;;;;;;;4.67;4.13;;;18.30;99.90;;;;;;5017278;28;20531;-71
2023/07/29 06:19:55;;;;;;;4.67;4.20;;;18.40;99.90;;;;;;5013685;28;20532;-72
2023/07/29 06:22:20;;;;;;;3.50;3.20;;;18.60;99.90;;;;;;5011306;28;20237;-72
2023/07/29 06:24:46;;;;;;;6.40;3.50;;;18.90;99.90;;;;;;5017601;28;20202;-72
2023/07/29 06:27:11;;;;;;;5.03;3.23;;;19.20;99.90;;;;;;5014357;28;20179;-72
2023/07/29 06:29:37;;;;;;;3.57;3.07;;;19.30;99.90;;;;;;5012470;28;20175;-72
2023/07/29 06:32:03;;;;;;;4.83;3.60;;;19.40;99.90;;;;;;5014331;28;20229;-72
2023/07/29 06:34:28;;;;;;;4.83;3.50;;;19.40;99.90;;;;;;5013929;28;20687;-72
2023/07/29 06:36:54;;;;;;;3.57;2.90;;;19.40;99.90;;;;;;5014360;28;20850;-72
2023/07/29 06:39:19;;;;;;;4.47;3.30;;;19.30;99.90;;;;;;5011165;28;20174;-72
2023/07/29 06:41:45;;;;;;;5.43;2.90;;;19.30;99.90;;;;;;5011779;28;20171;-72
2023/07/29 06:44:10;;;;;;;4.80;3.50;;;19.20;99.90;;;;;;5012805;28;20186;-72
2023/07/29 06:46:36;;;;;;;3.80;3.50;;;19.10;99.90;;;;;;5012013;28;20189;-72
2023/07/29 06:49:02;;;;;;;3.40;3.10;;;19.10;99.90;;;;;;5011186;28;20256;-72
2023/07/29 06:51:32;;;;;;;4.13;2.90;;;19.10;99.90;;;;;;5012488;28;20262;-72
2023/07/29 06:53:57;;;;;;;2.97;2.77;;;19.00;99.90;;;;;;5013599;28;20206;-73
2023/07/29 06:56:23;;;;;;;3.93;3.03;;;18.90;99.90;;;;;;5010252;28;20477;-72
2023/07/29 06:58:48;;;;;;;4.70;3.10;;;18.80;99.90;;;;;;5013087;28;20560;-72
2023/07/29 07:01:14;;;;;;;3.33;3.03;;;18.70;99.90;;;;;;5013299;28;20678;-72
2023/07/29 07:03:40;;;;;;;3.90;3.50;;;18.70;99.90;;;;;;5010293;28;20261;-72
2023/07/29 07:06:05;;;;;;;7.87;4.57;;;18.60;99.90;;;;;;5013047;28;21581;-72
2023/07/29 07:08:31;;;;;;;3.40;3.10;;;18.40;99.90;;;;;;5011768;28;20203;-72
2023/07/29 07:10:56;;;;;;;5.10;3.90;;;18.30;99.90;;;;;;5012621;28;20183;-71
2023/07/29 07:13:22;;;;;;;5.70;3.63;;;18.20;99.90;;;;;;5013370;28;20555;-72
2023/07/29 07:15:48;;;;;;;8.77;3.60;;;18.10;99.90;;;;;;5018939;28;20221;-71
2023/07/29 07:18:13;;;;;;;2.63;2.03;;;18.10;99.90;;;;;;5011858;28;20217;-71
2023/07/29 07:20:39;;;;;;;6.37;3.43;;;18.00;99.90;;;;;;5012730;28;20210;-72
2023/07/29 07:23:05;;;;;;;3.80;2.70;;;18.00;99.90;;;;;;5013282;28;20215;-72
2023/07/29 07:25:31;;;;;;;2.70;2.50;;;18.00;99.90;;;;;;5012638;28;20198;-72
2023/07/29 07:27:57;;;;;;;5.00;2.70;;;18.00;99.90;;;;;;5012680;28;20473;-72
2023/07/29 07:30:22;;;;;;;5.50;3.50;;;18.00;99.90;;;;;;5011600;28;20969;-72
2023/07/29 07:32:48;;;;;;;4.27;3.87;;;18.00;99.90;;;;;;5012172;28;20694;-72
2023/07/29 07:35:13;;;;;;;3.23;3.03;;;18.00;99.90;;;;;;5011439;28;20240;-72
2023/07/29 07:37:39;;;;;;;4.20;3.03;;;18.10;99.90;;;;;;5011238;28;20189;-72
2023/07/29 07:40:05;;;;;;;4.50;2.77;;;18.20;99.90;;;;;;5011716;28;20179;-72
2023/07/29 07:42:30;;;;;;;3.40;3.20;;;18.30;99.90;;;;;;5013016;28;20600;-72
2023/07/29 07:44:56;;;;;;;3.20;2.93;;;18.30;99.90;;;;;;5012050;28;20500;-72
2023/07/29 07:47:22;;;;;;;3.40;3.10;;;18.30;99.90;;;;;;5012094;28;20248;-72
2023/07/29 07:49:49;;;;;;;4.20;3.17;;;18.30;99.90;;;;;;5008928;28;20187;-72
2023/07/29 07:52:14;;;;;;;3.30;3.00;;;18.40;99.90;;;;;;5010728;28;20186;-73
2023/07/29 07:54:40;;;;;;;4.70;4.30;;;18.50;99.90;;;;;;5009434;28;20461;-72
2023/07/29 07:57:05;;;;;;;3.60;3.30;;;18.60;99.90;;;;;;5012796;28;20644;-72
2023/07/29 07:59:31;;;;;;;4.37;3.53;;;18.70;99.90;;;;;;5020646;28;20190;-72
2023/07/29 08:01:56;;;;;;;3.90;2.80;;;18.70;99.90;;;;;;5013038;28;20222;-72
2023/07/29 08:04:22;;;;;;;4.10;3.70;;;18.80;99.90;;;;;;5011272;28;20285;-72
2023/07/29 08:06:47;;;;;;;3.07;2.60;;;18.90;99.90;;;;;;5011758;28;20179;-72
2023/07/29 08:09:13;;;;;;;5.43;2.67;;;19.00;99.90;;;;;;5011487;28;20622;-72
2023/07/29 08:11:39;;;;;;;2.87;2.63;;;19.00;99.90;;;;;;5014534;28;20224;-72
2023/07/29 08:14:04;;;;;;;3.20;2.57;;;19.20;99.90;;;;;;5012289;28;20660;-72
2023/07/29 08:16:30;;;;;;;4.13;2.17;;;19.30;99.90;;;;;;5012431;28;20183;-72
2023/07/29 08:18:55;;;;;;;3.83;2.47;;;19.40;99.90;;;;;;5011020;28;20186;-72
2023/07/29 08:21:21;;;;;;;2.03;1.93;;;19.50;99.90;;;;;;5010965;28;20742;-72
2023/07/29 08:23:46;;;;;;;2.40;2.13;;;19.70;99.90;;;;;;5011937;28;20190;-72
2023/07/29 08:26:12;;;;;;;3.07;2.27;;;19.80;99.90;;;;;;5011550;28;20209;-72
2023/07/29 08:28:39;;;;;;;3.93;2.93;;;20.20;99.90;;;;;;5010744;28;20269;-73
2023/07/29 08:31:05;;;;;;;3.33;3.03;;;20.40;99.90;;;;;;5010546;28;20183;-72
2023/07/29 08:33:32;;;;;;;1.80;1.70;;;20.50;99.90;;;;;;5010653;28;20527;-73
2023/07/29 08:35:58;;;;;;;2.03;1.70;;;20.60;99.90;;;;;;5011483;28;20527;-73
2023/07/29 08:38:24;;;;;;;5.10;1.60;;;20.80;99.90;;;;;;5009196;28;20449;-73
2023/07/29 08:40:59;;;;;;;2.17;2.07;;;20.90;99.90;;;;;;5011932;28;20245;-73
2023/07/29 08:43:32;;;;;;;2.17;1.80;;;21.10;99.90;;;;;;5011686;28;20445;-73
2023/07/29 08:45:58;;;;;;;1.70;1.60;;;21.40;99.90;;;;;;5011799;28;21008;-73
2023/07/29 08:48:36;;;;;;;2.63;1.80;;;21.50;99.90;;;;;;5009931;28;20461;-71
2023/07/29 08:51:04;;;;;;;2.37;1.80;;;21.80;99.90;;;;;;5009742;28;20821;-76
2023/07/29 08:53:31;;;;;;;1.80;1.70;;;22.00;99.90;;;;;;5009094;28;20445;-76
2023/07/29 08:55:56;;;;;;;2.40;2.20;;;22.10;99.90;;;;;;5008579;28;20492;-75
2023/07/29 08:58:24;;;;;;;2.00;1.80;;;22.30;99.90;;;;;;5010335;28;20469;-75
2023/07/29 09:00:50;;;;;;;1.90;1.80;;;22.70;99.90;;;;;;5011126;28;20183;-76
2023/07/29 09:03:16;;;;;;;2.20;2.00;;;22.80;99.90;;;;;;5009602;28;20536;-76
2023/07/29 09:05:41;;;;;;;2.10;1.90;;;22.80;99.90;;;;;;5008259;28;21042;-76
2023/07/29 09:08:07;;;;;;;2.07;1.87;;;22.60;99.90;;;;;;5008389;28;20205;-75
2023/07/29 09:10:37;;;;;;;1.77;1.67;;;22.50;99.90;;;;;;5008232;28;20269;-75
2023/07/29 09:13:03;;;;;;;2.20;1.87;;;22.60;99.90;;;;;;5011842;28;20441;-75
2023/07/29 09:15:31;;;;;;;2.77;2.10;;;22.80;99.90;;;;;;5009582;28;20501;-75
2023/07/29 09:17:57;;;;;;;2.00;1.90;;;22.90;99.90;;;;;;5011698;28;20531;-75
2023/07/29 09:20:29;;;;;;;3.10;2.80;;;22.80;99.90;;;;;;5007832;28;20445;-75
2023/07/29 09:22:57;;;;;;;2.33;2.13;;;22.80;99.90;;;;;;5010685;28;20799;-69
2023/07/29 09:25:25;;;;;;;2.60;2.40;;;23.20;99.90;;;;;;5010694;28;20458;-71
2023/07/29 09:27:51;;;;;;;2.90;2.40;;;23.60;99.90;;;;;;5010689;28;20962;-72
2023/07/29 09:30:17;;;;;;;3.30;2.07;;;24.00;99.90;;;;;;5010892;28;20445;-71
2023/07/29 09:32:42;;;;;;;2.00;1.90;;;24.50;99.90;;;;;;5009921;28;20174;-70
2023/07/29 09:35:14;;;;;;;2.17;1.97;;;24.90;99.90;;;;;;5006628;28;20469;-70
2023/07/29 09:37:39;;;;;;;4.87;4.50;;;25.00;99.90;;;;;;5009950;28;20179;-70
2023/07/29 09:40:06;;;;;;;3.50;2.50;;;24.70;99.90;;;;;;5009154;28;20456;-69
2023/07/29 09:42:32;;;;;;;2.43;2.23;;;24.50;99.90;;;;;;5010340;28;20186;-70
2023/07/29 09:44:58;;;;;;;2.07;1.97;;;24.80;99.90;;;;;;5010790;28;20545;-69
2023/07/29 09:47:25;;;;;;;3.30;1.73;;;24.70;99.90;;;;;;5009638;28;20453;-70
2023/07/29 09:49:51;;;;;;;2.10;1.90;;;24.50;99.90;;;;;;5008499;28;20202;-68
2023/07/29 09:52:18;;;;;;;2.17;1.77;;;24.60;99.90;;;;;;5008617;28;20453;-68
2023/07/29 09:54:44;;;;;;;1.70;1.60;;;24.50;99.90;;;;;;5008034;28;20520;-68
2023/07/29 09:57:15;;;;;;;2.63;1.80;;;24.20;99.90;;;;;;5010216;28;20438;-69
2023/07/29 09:59:41;;;;;;;5.77;2.33;;;24.60;99.90;;;;;;5010412;28;20534;-69
2023/07/29 10:02:15;;;;;;;2.30;2.17;;;25.40;99.90;;;;;;5010016;28;20527;-69
2023/07/29 10:04:42;;;;;;;1.80;1.70;;;25.80;99.90;;;;;;5009211;28;20203;-69
2023/07/29 10:07:12;;;;;;;5.07;1.87;;;26.40;99.90;;;;;;5006723;28;20492;-69
2023/07/29 10:09:39;;;;;;;2.10;1.80;;;27.20;99.90;;;;;;5006451;28;20445;-66
2023/07/29 10:12:06;;;;;;;2.60;2.40;;;27.70;99.90;;;;;;5008267;28;20445;-67
2023/07/29 10:14:32;;;;;;;5.40;2.27;;;27.80;99.90;;;;;;5012640;28;20477;-69
2023/07/29 10:16:58;;;;;;;2.10;2.00;;;27.30;99.90;;;;;;5012585;28;20600;-68
2023/07/29 10:19:25;;;;;;;3.57;3.27;;;27.30;99.90;;;;;;5012352;28;20290;-67
2023/07/29 10:21:51;;;;;;;2.20;2.00;;;27.60;99.90;;;;;;5013464;28;20588;-68
2023/07/29 10:24:23;;;;;;;2.13;2.03;;;27.60;99.90;;;;;;5011643;28;20429;-67
2023/07/29 10:26:50;;;;;;;2.00;1.90;;;28.20;99.90;;;;;;5006870;28;20445;-68
2023/07/29 10:29:22;;;;;;;3.00;2.37;;;27.90;99.90;;;;;;5015636;28;20458;-68
2023/07/29 10:31:50;;;;;;;2.20;2.10;;;28.00;99.90;;;;;;5013551;28;20438;-67
2023/07/29 10:34:15;;;;;;;2.33;2.13;;;28.50;99.90;;;;;;5013754;28;20441;-68
2023/07/29 10:36:42;;;;;;;1.93;1.83;;;29.40;99.90;;;;;;5012161;28;20442;-68
2023/07/29 10:39:10;;;;;;;2.33;2.13;;;29.70;99.90;;;;;;5013343;28;20183;-68
2023/07/29 10:41:58;;;;;;;2.73;2.07;;;28.90;99.90;;;;;;5013605;28;20430;-66
2023/07/29 10:44:39;;;;;;;2.03;1.93;;;29.00;99.90;;;;;;5012111;28;20841;-68
2023/07/29 10:47:12;;;;;;;3.13;2.37;;;28.50;99.90;;;;;;5012090;28;20966;-67
2023/07/29 10:49:40;;;;;;;2.30;2.20;;;28.30;99.90;;;;;;5011560;28;20434;-67
2023/07/29 10:52:06;;;;;;;2.60;2.40;;;28.70;99.90;;;;;;5010619;28;20477;-67
2023/07/29 10:54:45;;;;;;;2.63;2.43;;;29.60;99.90;;;;;;5010691;28;20453;-67
2023/07/29 10:57:15;;;;;;;2.33;2.17;;;30.80;99.90;;;;;;5013173;28;20532;-68
2023/07/29 10:59:54;;;;;;;4.10;2.50;;;31.50;99.90;;;;;;5011756;28;20438;-67
2023/07/29 11:02:20;;;;;;;2.07;1.97;;;32.40;98.60;;;;;;5012617;28;20540;-67
2023/07/29 11:04:47;;;;;;;2.00;1.90;;;33.00;95.90;;;;;;5010744;28;20544;-67
2023/07/29 11:07:12;;;;;;;2.00;1.90;;;32.80;96.10;;;;;;5012102;28;20229;-67
2023/07/29 11:09:42;;;;;;;2.30;2.10;;;31.90;97.30;;;;;;5010848;28;20945;-67
2023/07/29 11:12:48;;;;;;;2.30;2.10;;;31.30;97.50;;;;;;5008849;28;20241;-67
2023/07/29 11:15:15;;;;;;;2.23;2.03;;;31.00;99.90;;;;;;5007479;28;20523;-67
2023/07/29 11:17:48;;;;;;;2.40;2.30;;;30.40;99.40;;;;;;5011448;28;20820;-67
2023/07/29 11:20:15;;;;;;;2.57;2.37;;;30.60;99.90;;;;;;5008192;28;20840;-67
2023/07/29 11:22:41;;;;;;;2.63;2.43;;;31.50;95.50;;;;;;5012610;28;20918;-67
2023/07/29 11:25:12;;;;;;;1.77;1.67;;;32.10;94.00;;;;;;5011032;28;20453;-67
2023/07/29 11:27:38;;;;;;;2.40;2.00;;;31.80;92.10;;;;;;5013133;28;20457;-66
2023/07/29 11:30:06;;;;;;;2.40;2.20;;;30.20;95.20;;;;;;5009920;28;20492;-66
2023/07/29 11:32:33;;;;;;;1.97;1.87;;;29.60;97.90;;;;;;5009394;28;20179;-67
2023/07/29 11:35:07;;;;;;;2.23;2.07;;;29.40;99.80;;;;;;5010885;28;20493;-67
2023/07/29 11:37:34;;;;;;;2.40;2.20;;;29.30;98.80;;;;;;5011200;28;20441;-67
2023/07/29 11:39:59;;;;;;;2.40;2.20;;;29.70;99.80;;;;;;5007571;28;20477;-66
2023/07/29 11:42:26;;;;;;;2.50;2.13;;;30.40;98.30;;;;;;5009911;28;20481;-66
2023/07/29 11:44:52;;;;;;;2.50;2.30;;;31.20;96.30;;;;;;5009299;28;20202;-66
2023/07/29 11:47:17;;;;;;;2.23;2.13;;;32.00;92.80;;;;;;5011521;28;20872;-67
2023/07/29 11:49:43;;;;;;;2.50;2.30;;;32.50;92.90;;;;;;5009678;28;20274;-67
2023/07/29 11:52:10;;;;;;;2.00;1.90;;;34.40;80.80;;;;;;5010888;28;20182;-66
2023/07/29 11:54:39;;;;;;;2.93;2.50;;;35.50;79.00;;;;;;5010759;28;20202;-68
2023/07/29 11:57:09;;;;;;;2.80;2.60;;;36.20;70.40;;;;;;5011703;28;20442;-69
2023/07/29 11:59:35;;;;;;;2.30;2.20;;;35.70;67.10;;;;;;5009613;28;20445;-67
2023/07/29 12:02:05;;;;;;;2.60;2.40;;;34.80;67.30;;;;;;5010850;28;20488;-68
2023/07/29 12:04:31;;;;;;;3.90;2.50;;;36.00;66.70;;;;;;5009020;28;20543;-68
2023/07/29 12:06:57;;;;;;;5.13;2.73;;;36.30;60.80;;;;;;5010387;28;20441;-68
2023/07/29 12:09:23;;;;;;;3.80;2.27;;;36.80;59.30;;;;;;5011243;28;20508;-68
2023/07/29 12:11:49;;;;;;;6.90;2.50;;;37.20;58.90;;;;;;5009485;28;20475;-69
2023/07/29 12:14:17;;;;;;;2.70;2.50;;;37.10;58.50;;;;;;5009712;28;20190;-66
2023/07/29 12:16:43;;;;;;;2.87;2.67;;;36.10;57.20;;;;;;5010896;28;20241;-67
2023/07/29 12:19:11;;;;;;;3.70;2.57;;;36.10;57.80;;;;;;5010037;28;20556;-65
2023/07/29 12:21:37;;;;;;;2.93;2.73;;;35.80;56.20;;;;;;5010066;28;20445;-67
2023/07/29 12:24:03;;;;;;;2.30;2.10;;;35.90;58.20;;;;;;5011536;28;20468;-67
2023/07/29 12:26:29;;;;;;;2.90;2.70;;;36.80;56.90;;;;;;5008737;28;20195;-68
2023/07/29 12:28:56;;;;;;;2.67;2.50;;;36.00;55.90;;;;;;5011788;28;20462;-68
2023/07/29 12:31:21;;;;;;;2.17;2.07;;;35.90;57.20;;;;;;5013279;28;20438;-67
2023/07/29 12:33:47;;;;;;;2.53;2.33;;;36.60;57.60;;;;;;5009791;28;20448;-68
2023/07/29 12:36:12;;;;;;;2.13;2.03;;;36.60;56.00;;;;;;5006736;28;20207;-67
2023/07/29 12:38:38;;;;;;;2.50;2.37;;;37.30;52.10;;;;;;5004914;28;20219;-66
2023/07/29 12:41:03;;;;;;;2.43;2.23;;;36.00;52.40;;;;;;5011268;28;20197;-67
2023/07/29 12:43:29;;;;;;;2.73;2.53;;;35.70;53.70;;;;;;5010035;28;20338;-67